createdAt,value
2023-03-29T00:01:00.130Z,75.10
2023-03-29T00:03:27.544Z,74.48
2023-03-29T00:06:03.107Z,74.33
2023-03-29T00:08:31.517Z,74.40
2023-03-29T00:10:59.303Z,74.28
2023-03-29T00:13:27.264Z,74.12
2023-03-29T00:15:54.913Z,73.86
2023-03-29T00:18:21.534Z,73.64
2023-03-29T00:20:57.257Z,73.50
2023-03-29T00:23:27.343Z,73.31
2023-03-29T00:25:54.734Z,72.94
2023-03-29T00:28:21.690Z,72.77
2023-03-29T00:30:50.513Z,72.80
2023-03-29T00:33:18.990Z,72.08
2023-03-29T00:35:46.202Z,71.51
2023-03-29T00:38:13.066Z,71.51
2023-03-29T00:40:44.633Z,70.91
2023-03-29T00:43:12.509Z,71.28
2023-03-29T00:45:39.077Z,71.58
2023-03-29T00:48:15.851Z,71.09
2023-03-29T00:50:52.753Z,70.86
2023-03-29T00:53:23.857Z,70.91
2023-03-29T00:56:06.333Z,71.09
2023-03-29T00:58:49.402Z,71.00
2023-03-29T01:01:20.748Z,70.70
2023-03-29T01:03:54.400Z,70.93
2023-03-29T01:06:24.818Z,70.93
2023-03-29T01:08:56.656Z,70.58
2023-03-29T01:11:28.285Z,70.71
2023-03-29T01:14:34.550Z,70.54
2023-03-29T01:17:01.154Z,70.66
2023-03-29T01:19:33.927Z,70.68
2023-03-29T01:22:22.347Z,70.19
2023-03-29T01:25:15.100Z,70.77
2023-03-29T01:28:02.673Z,70.66
2023-03-29T01:30:37.239Z,70.46
2023-03-29T01:33:26.709Z,70.59
2023-03-29T01:35:57.747Z,70.47
2023-03-29T01:38:36.416Z,70.88
2023-03-29T01:41:05.386Z,70.80
2023-03-29T01:43:41.321Z,70.65
2023-03-29T01:46:15.406Z,70.83
2023-03-29T01:48:51.604Z,70.95
2023-03-29T01:51:24.793Z,71.10
2023-03-29T01:53:59.857Z,71.05
2023-03-29T01:56:29.126Z,71.31
2023-03-29T01:59:05.825Z,71.45
2023-03-29T02:01:40.605Z,71.22
2023-03-29T02:04:14.023Z,71.66
2023-03-29T02:06:41.779Z,71.38
2023-03-29T02:09:09.150Z,71.52
2023-03-29T02:11:36.805Z,71.60
2023-03-29T02:14:03.523Z,71.67
2023-03-29T02:16:36.009Z,71.87
2023-03-29T02:19:03.303Z,72.32
2023-03-29T02:21:44.684Z,72.15
2023-03-29T02:24:15.292Z,71.90
2023-03-29T02:26:41.770Z,72.05
2023-03-29T02:29:08.433Z,71.86
2023-03-29T02:31:40.977Z,71.95
2023-03-29T02:34:28.202Z,72.08
2023-03-29T02:36:59.918Z,72.07
2023-03-29T02:39:29.450Z,71.99
2023-03-29T02:41:56.737Z,71.91
2023-03-29T02:44:27.711Z,71.83
2023-03-29T02:46:58.841Z,71.98
2023-03-29T02:49:25.394Z,71.95
2023-03-29T02:51:56.020Z,72.17
2023-03-29T02:54:27.021Z,72.06
2023-03-29T02:56:59.116Z,72.37
2023-03-29T02:59:26.223Z,72.25
2023-03-29T03:01:53.588Z,72.07
2023-03-29T03:04:23.085Z,72.36
2023-03-29T03:06:49.531Z,72.56
2023-03-29T03:09:15.928Z,72.52
2023-03-29T03:11:43.364Z,72.44
2023-03-29T03:14:10.288Z,72.23
2023-03-29T03:16:37.349Z,72.43
2023-03-29T03:19:04.345Z,72.10
2023-03-29T03:21:30.944Z,72.21
2023-03-29T03:23:57.347Z,72.36
2023-03-29T03:26:24.938Z,71.99
2023-03-29T03:28:51.447Z,72.30
2023-03-29T03:31:19.564Z,72.63
2023-03-29T03:33:45.991Z,72.45
2023-03-29T03:36:13.885Z,72.13
2023-03-29T03:38:41.272Z,72.18
2023-03-29T03:41:07.731Z,72.30
2023-03-29T03:43:34.759Z,72.00
2023-03-29T03:46:02.032Z,72.31
2023-03-29T03:48:28.527Z,71.96
2023-03-29T03:50:58.162Z,72.08
2023-03-29T03:53:27.361Z,71.87
2023-03-29T03:55:55.960Z,71.98
2023-03-29T03:58:23.188Z,71.86
2023-03-29T04:00:50.779Z,72.16
2023-03-29T04:03:17.679Z,72.15
2023-03-29T04:05:48.843Z,72.06
2023-03-29T04:08:15.367Z,72.47
2023-03-29T04:10:42.355Z,72.26
2023-03-29T04:13:08.768Z,72.70
2023-03-29T04:15:38.666Z,72.47
2023-03-29T04:18:07.308Z,72.68
2023-03-29T04:20:34.634Z,72.42
2023-03-29T04:23:01.796Z,72.54
2023-03-29T04:25:28.555Z,72.61
2023-03-29T04:27:56.070Z,72.78
2023-03-29T04:30:22.584Z,72.68
2023-03-29T04:32:49.062Z,72.32
2023-03-29T04:35:15.450Z,72.39
2023-03-29T04:37:44.439Z,72.81
2023-03-29T04:40:14.923Z,72.78
2023-03-29T04:42:45.869Z,72.93
2023-03-29T04:45:14.053Z,73.13
2023-03-29T04:47:42.032Z,73.13
2023-03-29T04:50:09.731Z,72.92
2023-03-29T04:52:36.143Z,72.69
2023-03-29T04:55:03.926Z,73.06
2023-03-29T04:57:30.831Z,72.94
2023-03-29T04:59:57.452Z,73.06
2023-03-29T05:02:23.992Z,73.17
2023-03-29T05:04:50.553Z,73.15
2023-03-29T05:07:19.807Z,73.13
2023-03-29T05:09:46.348Z,73.05
2023-03-29T05:12:12.882Z,73.35
2023-03-29T05:14:39.222Z,73.10
2023-03-29T05:17:06.466Z,72.94
2023-03-29T05:19:33.627Z,72.69
2023-03-29T05:22:00.712Z,73.08
2023-03-29T05:24:27.252Z,73.17
2023-03-29T05:26:53.612Z,73.16
2023-03-29T05:29:20.165Z,73.39
2023-03-29T05:31:47.095Z,72.79
2023-03-29T05:34:13.719Z,73.43
2023-03-29T05:36:40.341Z,73.21
2023-03-29T05:39:07.289Z,73.28
2023-03-29T05:41:34.402Z,73.28
2023-03-29T05:44:00.927Z,72.87
2023-03-29T05:46:27.383Z,72.69
2023-03-29T05:48:54.181Z,73.09
2023-03-29T05:51:24.244Z,73.34
2023-03-29T05:53:51.542Z,73.32
2023-03-29T05:56:19.033Z,73.00
2023-03-29T05:58:54.454Z,73.32
2023-03-29T06:01:22.553Z,73.36
2023-03-29T06:03:49.213Z,73.27
2023-03-29T06:06:16.687Z,73.25
2023-03-29T06:08:44.291Z,73.40
2023-03-29T06:11:13.215Z,73.53
2023-03-29T06:13:40.170Z,73.87
2023-03-29T06:16:07.274Z,74.04
2023-03-29T06:18:34.136Z,74.40
2023-03-29T06:21:02.738Z,74.00
2023-03-29T06:23:30.683Z,74.22
2023-03-29T06:25:58.093Z,74.38
2023-03-29T06:28:24.732Z,74.09
2023-03-29T06:30:51.415Z,74.33
2023-03-29T06:33:18.660Z,74.39
2023-03-29T06:35:47.461Z,74.68
2023-03-29T06:38:15.213Z,74.89
2023-03-29T06:40:43.178Z,74.90
2023-03-29T06:43:09.669Z,74.77
2023-03-29T06:45:37.844Z,74.93
2023-03-29T06:48:05.919Z,75.29
2023-03-29T06:50:32.575Z,75.71
2023-03-29T06:52:59.079Z,75.66
2023-03-29T06:55:27.237Z,76.06
2023-03-29T06:57:54.816Z,76.52
2023-03-29T07:00:30.588Z,76.33
2023-03-29T07:02:58.897Z,76.93
2023-03-29T07:05:29.318Z,77.41
2023-03-29T07:08:11.762Z,77.58
2023-03-29T07:10:41.217Z,78.14
2023-03-29T07:13:11.075Z,78.05
2023-03-29T07:15:37.702Z,78.41
2023-03-29T07:18:07.389Z,78.92
2023-03-29T07:20:33.967Z,79.17
2023-03-29T07:23:02.396Z,79.37
2023-03-29T07:25:29.967Z,79.71
2023-03-29T07:27:58.630Z,79.71
2023-03-29T07:30:30.944Z,79.80
2023-03-29T07:33:00.639Z,79.94
2023-03-29T07:35:27.879Z,80.10
2023-03-29T07:37:58.400Z,80.10
2023-03-29T07:40:26.300Z,80.24
2023-03-29T07:42:55.051Z,80.45
2023-03-29T07:45:26.787Z,80.29
2023-03-29T07:47:57.491Z,80.69
2023-03-29T07:50:24.724Z,80.27
2023-03-29T07:52:51.473Z,80.15
2023-03-29T07:55:18.201Z,80.21
2023-03-29T07:57:44.594Z,79.98
2023-03-29T08:00:16.011Z,80.40
2023-03-29T08:02:48.131Z,79.98
2023-03-29T08:05:23.238Z,80.22
2023-03-29T08:07:56.194Z,80.08
2023-03-29T08:10:23.042Z,80.35
2023-03-29T08:12:50.269Z,80.09
2023-03-29T08:15:16.973Z,80.35
2023-03-29T08:17:43.870Z,80.37
2023-03-29T08:20:13.087Z,80.36
2023-03-29T08:22:39.474Z,80.39
2023-03-29T08:25:08.109Z,80.22
2023-03-29T08:27:37.440Z,80.46
2023-03-29T08:30:06.691Z,80.64
2023-03-29T08:32:33.320Z,80.79
2023-03-29T08:35:01.401Z,80.34
2023-03-29T08:37:28.121Z,80.62
2023-03-29T08:39:54.557Z,80.71
2023-03-29T08:42:55.304Z,80.42
2023-03-29T08:45:33.826Z,80.15
2023-03-29T08:48:25.483Z,80.00
2023-03-29T08:50:58.447Z,79.61
2023-03-29T08:53:31.816Z,79.62
2023-03-29T08:56:02.463Z,79.46
2023-03-29T08:58:32.805Z,79.69
2023-03-29T09:01:01.803Z,79.69
2023-03-29T09:03:45.298Z,79.58
2023-03-29T09:06:12.906Z,79.85
2023-03-29T09:08:45.539Z,79.82
2023-03-29T09:11:23.821Z,79.95
2023-03-29T09:14:21.452Z,79.45
2023-03-29T09:17:21.538Z,79.46
2023-03-29T09:20:22.114Z,79.74
2023-03-29T09:23:02.230Z,79.79
2023-03-29T09:25:53.417Z,79.77
2023-03-29T09:28:54.943Z,79.42
2023-03-29T09:31:26.014Z,79.41
2023-03-29T09:33:58.598Z,79.68
2023-03-29T09:36:52.523Z,79.27
2023-03-29T09:39:21.199Z,79.21
2023-03-29T09:41:51.044Z,79.60
2023-03-29T09:44:30.738Z,79.53
2023-03-29T09:47:06.121Z,79.53
2023-03-29T09:49:42.760Z,79.69
2023-03-29T09:52:13.000Z,79.61
2023-03-29T09:54:39.861Z,79.76
2023-03-29T09:57:06.856Z,79.66
2023-03-29T09:59:33.517Z,79.86
2023-03-29T10:02:12.907Z,79.80
2023-03-29T10:04:42.460Z,79.93
2023-03-29T10:07:20.709Z,79.90
2023-03-29T10:09:56.701Z,79.99
2023-03-29T10:12:23.229Z,80.06
2023-03-29T10:14:53.942Z,79.88
2023-03-29T10:17:26.719Z,79.78
2023-03-29T10:20:03.975Z,79.95
2023-03-29T10:22:41.121Z,79.67
2023-03-29T10:25:17.120Z,79.63
2023-03-29T10:27:46.781Z,79.52
2023-03-29T10:30:25.350Z,79.72
2023-03-29T10:33:00.331Z,79.82
2023-03-29T10:35:34.597Z,80.13
2023-03-29T10:38:07.545Z,80.26
2023-03-29T10:40:40.191Z,80.26
2023-03-29T10:43:21.810Z,80.74
2023-03-29T10:45:54.196Z,80.68
2023-03-29T10:48:27.776Z,80.73
2023-03-29T10:50:58.491Z,80.66
2023-03-29T10:53:29.261Z,80.56
2023-03-29T10:56:01.697Z,80.56
2023-03-29T10:58:42.337Z,80.77
2023-03-29T11:01:22.236Z,81.22
2023-03-29T11:04:07.860Z,81.46
2023-03-29T11:06:46.086Z,81.74
2023-03-29T11:09:49.805Z,81.49
2023-03-29T11:12:21.566Z,81.04
2023-03-29T11:15:19.069Z,80.92
2023-03-29T11:18:23.245Z,80.68
2023-03-29T11:21:16.832Z,80.53
2023-03-29T11:23:59.647Z,80.45
2023-03-29T11:26:39.950Z,80.19
2023-03-29T11:29:23.631Z,80.77
2023-03-29T11:31:59.295Z,81.00
2023-03-29T11:34:37.699Z,81.46
2023-03-29T11:37:20.414Z,81.85
2023-03-29T11:40:15.976Z,82.29
2023-03-29T11:42:48.288Z,82.44
2023-03-29T11:45:23.395Z,82.48
2023-03-29T11:47:51.507Z,82.78
2023-03-29T11:50:44.847Z,82.81
2023-03-29T11:53:17.064Z,82.90
2023-03-29T11:55:44.637Z,83.27
2023-03-29T11:58:22.427Z,83.45
2023-03-29T12:01:01.780Z,83.82
2023-03-29T12:03:40.397Z,83.57
2023-03-29T12:06:31.967Z,83.54
2023-03-29T12:09:04.583Z,83.67
2023-03-29T12:11:38.551Z,83.53
2023-03-29T12:14:14.143Z,83.80
2023-03-29T12:17:22.978Z,83.75
2023-03-29T12:20:15.110Z,83.88
2023-03-29T12:22:41.665Z,83.96
2023-03-29T12:25:18.218Z,84.38
2023-03-29T12:27:56.246Z,84.36
2023-03-29T12:30:46.424Z,84.20
2023-03-29T12:33:28.238Z,84.38
2023-03-29T12:36:09.847Z,84.78
2023-03-29T12:38:37.668Z,85.20
2023-03-29T12:41:16.637Z,85.42
2023-03-29T12:43:43.559Z,85.87
2023-03-29T12:46:19.434Z,86.20
2023-03-29T12:48:49.331Z,86.13
2023-03-29T12:51:23.383Z,86.25
2023-03-29T12:53:53.684Z,86.50
2023-03-29T12:56:36.329Z,86.58
2023-03-29T12:59:10.762Z,86.56
2023-03-29T13:01:41.491Z,87.10
2023-03-29T13:04:17.543Z,86.90
2023-03-29T13:06:46.817Z,87.10
2023-03-29T13:10:06.035Z,86.70
2023-03-29T13:12:35.798Z,86.83
2023-03-29T13:15:07.818Z,86.76
2023-03-29T13:17:42.860Z,86.71
2023-03-29T13:20:29.001Z,86.31
2023-03-29T13:23:21.633Z,86.54
2023-03-29T13:26:07.640Z,86.12
2023-03-29T13:28:57.934Z,85.72
2023-03-29T13:31:33.538Z,85.49
2023-03-29T13:34:31.030Z,84.39
2023-03-29T13:37:10.566Z,84.04
2023-03-29T13:39:47.317Z,83.36
2023-03-29T13:42:19.374Z,83.06
2023-03-29T13:44:48.957Z,82.54
2023-03-29T13:47:41.810Z,82.55
2023-03-29T13:50:18.542Z,82.29
2023-03-29T13:52:58.722Z,82.17
2023-03-29T13:55:32.273Z,81.90
2023-03-29T13:58:10.211Z,81.73
2023-03-29T14:00:47.045Z,81.58
2023-03-29T14:03:18.476Z,81.82
2023-03-29T14:05:50.626Z,81.57
2023-03-29T14:08:25.418Z,81.22
2023-03-29T14:10:53.444Z,81.40
2023-03-29T14:13:23.367Z,81.53
2023-03-29T14:16:11.658Z,81.69
2023-03-29T14:18:41.239Z,81.97
2023-03-29T14:21:08.571Z,82.06
2023-03-29T14:23:37.409Z,82.17
2023-03-29T14:26:16.670Z,82.24
2023-03-29T14:28:56.504Z,82.25
2023-03-29T14:31:30.541Z,82.07
2023-03-29T14:33:59.276Z,81.63
2023-03-29T14:36:27.192Z,81.75
2023-03-29T14:39:18.337Z,81.33
2023-03-29T14:41:51.676Z,81.18
2023-03-29T14:44:21.703Z,80.60
2023-03-29T14:46:48.309Z,80.29
2023-03-29T14:49:20.654Z,79.51
2023-03-29T14:51:48.215Z,79.46
2023-03-29T14:54:33.324Z,79.33
2023-03-29T14:57:03.705Z,78.60
2023-03-29T14:59:37.393Z,78.26
2023-03-29T15:02:21.751Z,78.05
2023-03-29T15:05:04.960Z,78.01
2023-03-29T15:07:36.988Z,77.96
2023-03-29T15:10:06.389Z,77.90
2023-03-29T15:12:34.112Z,77.66
2023-03-29T15:15:01.457Z,77.38
2023-03-29T15:17:51.216Z,77.28
2023-03-29T15:20:27.105Z,77.28
2023-03-29T15:22:58.663Z,77.42
2023-03-29T15:25:37.633Z,76.77
2023-03-29T15:28:04.901Z,76.63
2023-03-29T15:30:34.769Z,76.60
2023-03-29T15:33:16.561Z,76.28
2023-03-29T15:35:47.409Z,76.29
2023-03-29T15:38:14.204Z,76.25
2023-03-29T15:40:41.163Z,75.88
2023-03-29T15:43:07.867Z,75.40
2023-03-29T15:45:34.679Z,75.50
2023-03-29T15:48:04.787Z,75.52
2023-03-29T15:50:32.478Z,75.46
2023-03-29T15:53:05.409Z,75.28
2023-03-29T15:55:44.963Z,75.40
2023-03-29T15:58:16.904Z,75.38
2023-03-29T16:00:48.456Z,75.15
2023-03-29T16:03:15.985Z,75.28
2023-03-29T16:05:45.421Z,75.29
2023-03-29T16:08:13.166Z,75.27
2023-03-29T16:10:41.224Z,75.12
2023-03-29T16:13:10.039Z,75.29
2023-03-29T16:15:37.183Z,75.16
2023-03-29T16:18:05.232Z,75.19
2023-03-29T16:20:32.186Z,75.41
2023-03-29T16:22:58.678Z,75.41
2023-03-29T16:25:25.341Z,75.43
2023-03-29T16:28:01.574Z,75.32
2023-03-29T16:30:28.625Z,75.35
2023-03-29T16:32:55.201Z,75.57
2023-03-29T16:35:26.361Z,75.35
2023-03-29T16:37:52.733Z,75.30
2023-03-29T16:40:20.980Z,75.36
2023-03-29T16:42:47.870Z,75.38
2023-03-29T16:45:14.929Z,75.50
2023-03-29T16:47:44.894Z,75.53
2023-03-29T16:50:12.958Z,75.66
2023-03-29T16:52:40.022Z,75.79
2023-03-29T16:55:07.872Z,75.83
2023-03-29T16:57:34.438Z,76.11
2023-03-29T17:00:01.178Z,76.76
2023-03-29T17:02:27.775Z,76.75
2023-03-29T17:04:54.354Z,77.02
2023-03-29T17:07:20.797Z,77.27
2023-03-29T17:09:47.424Z,77.50
2023-03-29T17:12:14.241Z,78.13
2023-03-29T17:14:41.899Z,78.69
2023-03-29T17:17:08.330Z,78.51
2023-03-29T17:19:34.868Z,79.02
2023-03-29T17:22:01.324Z,79.18
2023-03-29T17:24:30.859Z,79.28
2023-03-29T17:26:58.955Z,79.54
2023-03-29T17:29:25.376Z,79.85
2023-03-29T17:31:51.821Z,79.81
2023-03-29T17:34:19.343Z,80.15
2023-03-29T17:36:46.200Z,80.34
2023-03-29T17:39:15.270Z,80.45
2023-03-29T17:41:42.508Z,80.59
2023-03-29T17:44:08.973Z,80.59
2023-03-29T17:46:35.463Z,80.53
2023-03-29T17:49:04.074Z,80.62
2023-03-29T17:51:30.965Z,80.58
2023-03-29T17:53:58.460Z,80.63
2023-03-29T17:56:26.807Z,80.79
2023-03-29T17:58:53.827Z,80.75
2023-03-29T18:01:28.154Z,81.04
2023-03-29T18:03:54.872Z,81.22
2023-03-29T18:06:21.403Z,81.22
2023-03-29T18:08:48.234Z,81.30
2023-03-29T18:11:22.774Z,81.44
2023-03-29T18:13:51.273Z,81.26
2023-03-29T18:16:18.598Z,81.63
2023-03-29T18:18:46.368Z,82.29
2023-03-29T18:21:14.808Z,82.28
2023-03-29T18:23:45.089Z,82.43
2023-03-29T18:26:12.231Z,82.63
2023-03-29T18:28:38.948Z,82.94
2023-03-29T18:31:06.027Z,83.09
2023-03-29T18:33:35.229Z,83.20
2023-03-29T18:36:09.848Z,83.36
2023-03-29T18:41:08.533Z,84.04
2023-03-29T18:43:35.984Z,84.20
2023-03-29T18:46:03.255Z,84.53
2023-03-29T18:48:30.269Z,84.56
2023-03-29T18:50:57.822Z,84.70
2023-03-29T18:53:24.602Z,84.67
2023-03-29T18:55:55.383Z,84.75
2023-03-29T18:58:23.964Z,84.98
2023-03-29T19:00:51.382Z,85.09
2023-03-29T19:03:18.311Z,85.36
2023-03-29T19:05:44.861Z,85.43
2023-03-29T19:08:11.324Z,85.58
2023-03-29T19:10:39.273Z,85.87
2023-03-29T19:13:06.216Z,85.91
2023-03-29T19:15:34.688Z,86.22
2023-03-29T19:18:01.491Z,86.43
2023-03-29T19:20:28.375Z,86.43
2023-03-29T19:22:54.825Z,86.72
2023-03-29T19:25:21.455Z,86.76
2023-03-29T19:27:47.890Z,86.69
2023-03-29T19:30:14.866Z,86.52
2023-03-29T19:32:41.283Z,87.05
2023-03-29T19:35:09.546Z,87.24
2023-03-29T19:37:36.109Z,87.14
2023-03-29T19:40:03.726Z,87.34
2023-03-29T19:42:30.343Z,88.13
2023-03-29T19:44:56.838Z,87.91
2023-03-29T19:47:24.478Z,88.24
2023-03-29T19:49:51.406Z,88.39
2023-03-29T19:52:17.842Z,88.70
2023-03-29T19:54:47.286Z,88.79
2023-03-29T19:57:13.780Z,88.86
2023-03-29T19:59:43.020Z,89.04
2023-03-29T20:02:11.330Z,89.28
2023-03-29T20:04:37.926Z,89.22
2023-03-29T20:07:04.685Z,89.39
2023-03-29T20:09:32.755Z,89.31
2023-03-29T20:12:00.167Z,89.50
2023-03-29T20:14:28.273Z,89.53
2023-03-29T20:16:55.178Z,89.88
2023-03-29T20:19:25.317Z,89.89
2023-03-29T20:21:58.718Z,90.17
2023-03-29T20:24:25.352Z,90.15
2023-03-29T20:26:52.685Z,90.34
2023-03-29T20:29:19.142Z,90.62
2023-03-29T20:31:46.425Z,90.60
2023-03-29T20:34:13.050Z,90.67
2023-03-29T20:36:40.565Z,90.72
2023-03-29T20:39:19.613Z,90.74
2023-03-29T20:41:47.668Z,90.84
2023-03-29T20:44:16.705Z,90.97
2023-03-29T20:46:54.059Z,90.95
2023-03-29T20:49:26.681Z,90.96
2023-03-29T20:52:03.260Z,91.05
2023-03-29T20:54:29.716Z,91.01
2023-03-29T20:56:56.464Z,91.09
2023-03-29T20:59:22.950Z,91.15
2023-03-29T21:01:50.329Z,91.13
2023-03-29T21:04:17.677Z,91.27
2023-03-29T21:06:45.682Z,91.21
2023-03-29T21:09:13.245Z,91.20
2023-03-29T21:11:39.818Z,91.09
2023-03-29T21:14:06.241Z,91.34
2023-03-29T21:16:32.703Z,91.53
2023-03-29T21:18:59.135Z,91.47
2023-03-29T21:21:25.630Z,91.58
2023-03-29T21:23:52.152Z,91.39
2023-03-29T21:26:18.626Z,91.70
2023-03-29T21:28:45.317Z,91.54
2023-03-29T21:31:11.766Z,91.80
2023-03-29T21:33:38.279Z,92.18
2023-03-29T21:36:05.609Z,92.19
2023-03-29T21:38:32.259Z,92.14
2023-03-29T21:41:00.256Z,92.31
2023-03-29T21:43:26.893Z,92.49
2023-03-29T21:45:53.367Z,92.46
2023-03-29T21:48:19.798Z,92.58
2023-03-29T21:50:49.860Z,92.51
2023-03-29T21:53:16.674Z,92.31
2023-03-29T21:55:43.083Z,92.25
2023-03-29T21:58:09.661Z,92.24
2023-03-29T22:00:36.088Z,92.15
2023-03-29T22:03:02.540Z,91.97
2023-03-29T22:05:28.987Z,91.75
2023-03-29T22:07:58.532Z,91.61
2023-03-29T22:10:25.246Z,91.49
2023-03-29T22:13:00.973Z,91.39
2023-03-29T22:15:29.362Z,91.18
2023-03-29T22:17:59.753Z,91.18
2023-03-29T22:20:27.432Z,91.03
2023-03-29T22:22:53.907Z,90.84
2023-03-29T22:25:20.817Z,90.70
2023-03-29T22:27:48.736Z,90.39
2023-03-29T22:30:16.260Z,90.32
2023-03-29T22:32:42.904Z,89.84
2023-03-29T22:35:10.002Z,89.63
2023-03-29T22:37:44.121Z,89.50
2023-03-29T22:40:12.114Z,89.17
2023-03-29T22:42:38.849Z,89.02
2023-03-29T22:45:06.524Z,88.63
2023-03-29T22:47:33.116Z,88.61
2023-03-29T22:49:59.477Z,88.15
2023-03-29T22:52:26.042Z,87.85
2023-03-29T22:54:52.557Z,87.73
2023-03-29T22:57:18.967Z,87.46
2023-03-29T22:59:45.405Z,87.19
2023-03-29T23:02:11.865Z,87.02
2023-03-29T23:04:38.812Z,86.85
2023-03-29T23:07:07.614Z,86.74
2023-03-29T23:09:34.033Z,86.47
2023-03-29T23:12:01.161Z,86.23
2023-03-29T23:14:27.817Z,85.88
2023-03-29T23:16:54.342Z,85.42
2023-03-29T23:19:20.763Z,85.29
2023-03-29T23:21:47.141Z,85.19
2023-03-29T23:24:13.532Z,84.94
2023-03-29T23:26:39.980Z,84.48
2023-03-29T23:29:06.389Z,84.31
2023-03-29T23:31:33.835Z,83.90
2023-03-29T23:34:00.288Z,83.71
2023-03-29T23:36:31.087Z,83.45
2023-03-29T23:38:59.436Z,82.97
2023-03-29T23:41:30.421Z,82.79
2023-03-29T23:43:57.662Z,82.62
2023-03-29T23:46:31.370Z,82.36
2023-03-29T23:48:58.338Z,82.20
2023-03-29T23:51:28.789Z,81.82
2023-03-29T23:53:56.312Z,81.58
2023-03-29T23:56:22.866Z,81.32
2023-03-29T23:58:49.402Z,81.29
